sensor_id;sensor_type;location;lat;lon;timestamp;temperature;humidity
14049;DHT22;7099;53.922;10.728;2023-01-29T00:00:47;3.80;76.30
14049;DHT22;7099;53.922;10.728;2023-01-29T00:04:52;3.80;76.50
14049;DHT22;7099;53.922;10.728;2023-01-29T00:09:03;3.80;76.40
14049;DHT22;7099;53.922;10.728;2023-01-29T00:13:08;3.80;76.50
14049;DHT22;7099;53.922;10.728;2023-01-29T00:17:13;3.80;76.50
14049;DHT22;7099;53.922;10.728;2023-01-29T00:21:21;3.80;76.70
14049;DHT22;7099;53.922;10.728;2023-01-29T00:25:26;3.80;76.60
14049;DHT22;7099;53.922;10.728;2023-01-29T00:29:32;3.80;76.70
14049;DHT22;7099;53.922;10.728;2023-01-29T00:33:38;3.80;76.70
14049;DHT22;7099;53.922;10.728;2023-01-29T00:37:43;3.90;76.60
14049;DHT22;7099;53.922;10.728;2023-01-29T00:41:49;3.90;76.60
14049;DHT22;7099;53.922;10.728;2023-01-29T00:46:13;3.90;76.80
14049;DHT22;7099;53.922;10.728;2023-01-29T00:50:18;3.90;76.90
14049;DHT22;7099;53.922;10.728;2023-01-29T00:54:24;3.80;76.70
14049;DHT22;7099;53.922;10.728;2023-01-29T00:58:29;3.90;76.80
14049;DHT22;7099;53.922;10.728;2023-01-29T01:02:38;3.90;76.80
14049;DHT22;7099;53.922;10.728;2023-01-29T01:07:02;3.90;76.80
14049;DHT22;7099;53.922;10.728;2023-01-29T01:11:07;4.00;76.90
14049;DHT22;7099;53.922;10.728;2023-01-29T01:15:13;3.90;77.10
14049;DHT22;7099;53.922;10.728;2023-01-29T01:19:18;3.90;77.20
14049;DHT22;7099;53.922;10.728;2023-01-29T01:23:24;3.90;77.20
14049;DHT22;7099;53.922;10.728;2023-01-29T01:27:30;3.90;77.30
14049;DHT22;7099;53.922;10.728;2023-01-29T01:31:36;3.90;77.20
14049;DHT22;7099;53.922;10.728;2023-01-29T01:35:41;3.90;77.30
14049;DHT22;7099;53.922;10.728;2023-01-29T01:39:47;3.90;77.40
14049;DHT22;7099;53.922;10.728;2023-01-29T01:43:58;3.90;77.40
14049;DHT22;7099;53.922;10.728;2023-01-29T01:52:24;3.90;77.70
14049;DHT22;7099;53.922;10.728;2023-01-29T01:56:33;4.00;77.40
14049;DHT22;7099;53.922;10.728;2023-01-29T02:00:49;4.00;77.60
14049;DHT22;7099;53.922;10.728;2023-01-29T02:04:55;4.00;77.50
14049;DHT22;7099;53.922;10.728;2023-01-29T02:09:22;4.00;77.60
14049;DHT22;7099;53.922;10.728;2023-01-29T02:13:40;4.00;77.90
14049;DHT22;7099;53.922;10.728;2023-01-29T02:17:46;4.00;77.70
14049;DHT22;7099;53.922;10.728;2023-01-29T02:31:34;4.00;78.50
14049;DHT22;7099;53.922;10.728;2023-01-29T02:40:10;4.10;78.20
14049;DHT22;7099;53.922;10.728;2023-01-29T02:49:04;4.10;78.20
14049;DHT22;7099;53.922;10.728;2023-01-29T02:53:31;4.10;78.30
14049;DHT22;7099;53.922;10.728;2023-01-29T02:57:43;4.10;78.10
14049;DHT22;7099;53.922;10.728;2023-01-29T03:01:58;4.10;78.20
14049;DHT22;7099;53.922;10.728;2023-01-29T03:06:22;4.10;78.40
14049;DHT22;7099;53.922;10.728;2023-01-29T03:10:53;4.10;78.50
14049;DHT22;7099;53.922;10.728;2023-01-29T03:15:10;4.20;79.00
14049;DHT22;7099;53.922;10.728;2023-01-29T03:19:37;4.20;78.50
14049;DHT22;7099;53.922;10.728;2023-01-29T03:23:45;4.20;78.80
14049;DHT22;7099;53.922;10.728;2023-01-29T03:28:12;4.20;78.30
14049;DHT22;7099;53.922;10.728;2023-01-29T03:32:40;4.30;78.30
14049;DHT22;7099;53.922;10.728;2023-01-29T03:36:51;4.20;78.20
14049;DHT22;7099;53.922;10.728;2023-01-29T03:45:46;4.30;78.40
14049;DHT22;7099;53.922;10.728;2023-01-29T03:54:59;4.30;78.60
14049;DHT22;7099;53.922;10.728;2023-01-29T03:59:30;4.30;78.30
14049;DHT22;7099;53.922;10.728;2023-01-29T04:03:40;4.40;78.40
14049;DHT22;7099;53.922;10.728;2023-01-29T04:07:56;4.40;78.50
14049;DHT22;7099;53.922;10.728;2023-01-29T04:12:09;4.40;78.50
14049;DHT22;7099;53.922;10.728;2023-01-29T04:16:33;4.40;78.90
14049;DHT22;7099;53.922;10.728;2023-01-29T04:20:42;4.40;78.80
14049;DHT22;7099;53.922;10.728;2023-01-29T04:24:48;4.40;78.30
14049;DHT22;7099;53.922;10.728;2023-01-29T04:34:03;4.50;78.90
14049;DHT22;7099;53.922;10.728;2023-01-29T04:43:05;4.50;78.60
14049;DHT22;7099;53.922;10.728;2023-01-29T04:47:27;4.50;78.60
14049;DHT22;7099;53.922;10.728;2023-01-29T04:52:04;4.50;78.80
14049;DHT22;7099;53.922;10.728;2023-01-29T04:56:32;4.50;79.20
14049;DHT22;7099;53.922;10.728;2023-01-29T05:00:43;4.50;78.90
14049;DHT22;7099;53.922;10.728;2023-01-29T05:04:49;4.50;78.80
14049;DHT22;7099;53.922;10.728;2023-01-29T05:08:56;4.50;78.70
14049;DHT22;7099;53.922;10.728;2023-01-29T05:13:05;4.50;78.60
14049;DHT22;7099;53.922;10.728;2023-01-29T05:17:18;4.50;78.60
14049;DHT22;7099;53.922;10.728;2023-01-29T05:21:26;4.50;79.40
14049;DHT22;7099;53.922;10.728;2023-01-29T05:25:32;4.60;78.70
14049;DHT22;7099;53.922;10.728;2023-01-29T05:29:47;4.60;78.60
14049;DHT22;7099;53.922;10.728;2023-01-29T05:33:53;4.60;79.00
14049;DHT22;7099;53.922;10.728;2023-01-29T05:38:00;4.60;78.60
14049;DHT22;7099;53.922;10.728;2023-01-29T05:42:05;4.60;78.60
14049;DHT22;7099;53.922;10.728;2023-01-29T05:46:11;4.60;78.80
14049;DHT22;7099;53.922;10.728;2023-01-29T05:50:17;4.60;78.70
14049;DHT22;7099;53.922;10.728;2023-01-29T05:54:23;4.60;78.70
14049;DHT22;7099;53.922;10.728;2023-01-29T05:58:30;4.60;78.80
14049;DHT22;7099;53.922;10.728;2023-01-29T06:02:36;4.60;78.80
14049;DHT22;7099;53.922;10.728;2023-01-29T06:06:42;4.60;78.90
14049;DHT22;7099;53.922;10.728;2023-01-29T06:10:47;4.60;78.80
14049;DHT22;7099;53.922;10.728;2023-01-29T06:14:53;4.60;78.70
14049;DHT22;7099;53.922;10.728;2023-01-29T06:18:58;4.60;78.70
14049;DHT22;7099;53.922;10.728;2023-01-29T06:23:04;4.60;78.80
14049;DHT22;7099;53.922;10.728;2023-01-29T06:27:10;4.60;78.80
14049;DHT22;7099;53.922;10.728;2023-01-29T06:31:15;4.60;78.80
14049;DHT22;7099;53.922;10.728;2023-01-29T06:35:41;4.60;78.70
14049;DHT22;7099;53.922;10.728;2023-01-29T06:39:46;4.50;78.80
14049;DHT22;7099;53.922;10.728;2023-01-29T06:43:52;4.50;78.70
14049;DHT22;7099;53.922;10.728;2023-01-29T06:47:57;4.50;78.70
14049;DHT22;7099;53.922;10.728;2023-01-29T06:52:05;4.60;78.60
14049;DHT22;7099;53.922;10.728;2023-01-29T06:56:11;4.50;78.50
14049;DHT22;7099;53.922;10.728;2023-01-29T07:00:17;4.50;78.50
14049;DHT22;7099;53.922;10.728;2023-01-29T07:04:23;4.50;78.40
14049;DHT22;7099;53.922;10.728;2023-01-29T07:08:28;4.50;78.30
14049;DHT22;7099;53.922;10.728;2023-01-29T07:12:34;4.50;78.30
14049;DHT22;7099;53.922;10.728;2023-01-29T07:16:39;4.50;78.10
14049;DHT22;7099;53.922;10.728;2023-01-29T07:20:45;4.50;78.00
14049;DHT22;7099;53.922;10.728;2023-01-29T07:24:51;4.50;78.00
14049;DHT22;7099;53.922;10.728;2023-01-29T07:28:56;4.50;77.80
14049;DHT22;7099;53.922;10.728;2023-01-29T07:33:07;4.50;77.60
14049;DHT22;7099;53.922;10.728;2023-01-29T07:37:13;4.50;77.50
14049;DHT22;7099;53.922;10.728;2023-01-29T07:41:18;4.50;77.40
14049;DHT22;7099;53.922;10.728;2023-01-29T07:45:24;4.50;77.30
14049;DHT22;7099;53.922;10.728;2023-01-29T07:49:30;4.50;77.20
14049;DHT22;7099;53.922;10.728;2023-01-29T07:53:35;4.40;77.20
14049;DHT22;7099;53.922;10.728;2023-01-29T07:57:42;4.50;77.40
14049;DHT22;7099;53.922;10.728;2023-01-29T08:01:48;4.40;77.20
14049;DHT22;7099;53.922;10.728;2023-01-29T08:05:54;4.50;77.20
14049;DHT22;7099;53.922;10.728;2023-01-29T08:10:02;4.40;77.00
14049;DHT22;7099;53.922;10.728;2023-01-29T08:14:08;4.50;76.90
14049;DHT22;7099;53.922;10.728;2023-01-29T08:18:15;4.50;76.90
14049;DHT22;7099;53.922;10.728;2023-01-29T08:22:21;4.50;76.60
14049;DHT22;7099;53.922;10.728;2023-01-29T08:26:26;4.60;76.80
14049;DHT22;7099;53.922;10.728;2023-01-29T08:30:33;4.50;76.70
14049;DHT22;7099;53.922;10.728;2023-01-29T08:34:39;4.50;76.70
14049;DHT22;7099;53.922;10.728;2023-01-29T08:38:45;4.60;76.60
14049;DHT22;7099;53.922;10.728;2023-01-29T08:42:50;4.60;76.60
14049;DHT22;7099;53.922;10.728;2023-01-29T08:46:56;4.60;76.50
14049;DHT22;7099;53.922;10.728;2023-01-29T08:51:02;4.60;76.30
14049;DHT22;7099;53.922;10.728;2023-01-29T08:55:09;4.60;76.30
14049;DHT22;7099;53.922;10.728;2023-01-29T08:59:15;4.60;76.20
14049;DHT22;7099;53.922;10.728;2023-01-29T09:03:20;4.70;76.20
14049;DHT22;7099;53.922;10.728;2023-01-29T09:07:27;4.70;76.20
14049;DHT22;7099;53.922;10.728;2023-01-29T09:11:33;4.70;76.00
14049;DHT22;7099;53.922;10.728;2023-01-29T09:15:38;4.70;76.20
14049;DHT22;7099;53.922;10.728;2023-01-29T09:19:44;4.80;76.30
14049;DHT22;7099;53.922;10.728;2023-01-29T09:23:49;4.80;76.20
14049;DHT22;7099;53.922;10.728;2023-01-29T09:27:55;4.80;76.20
14049;DHT22;7099;53.922;10.728;2023-01-29T09:32:02;4.80;76.30
14049;DHT22;7099;53.922;10.728;2023-01-29T09:36:08;4.80;76.50
14049;DHT22;7099;53.922;10.728;2023-01-29T09:40:24;4.80;76.30
14049;DHT22;7099;53.922;10.728;2023-01-29T09:44:54;4.90;76.40
14049;DHT22;7099;53.922;10.728;2023-01-29T09:49:27;4.90;76.30
14049;DHT22;7099;53.922;10.728;2023-01-29T09:53:42;4.90;76.40
14049;DHT22;7099;53.922;10.728;2023-01-29T09:57:55;4.90;77.20
14049;DHT22;7099;53.922;10.728;2023-01-29T10:02:09;4.90;76.40
14049;DHT22;7099;53.922;10.728;2023-01-29T10:11:06;4.90;76.50
14049;DHT22;7099;53.922;10.728;2023-01-29T10:25:09;4.90;76.60
14049;DHT22;7099;53.922;10.728;2023-01-29T10:29:22;5.00;76.50
14049;DHT22;7099;53.922;10.728;2023-01-29T10:33:42;4.90;76.40
14049;DHT22;7099;53.922;10.728;2023-01-29T10:38:23;4.80;76.50
14049;DHT22;7099;53.922;10.728;2023-01-29T10:43:04;4.90;76.50
14049;DHT22;7099;53.922;10.728;2023-01-29T10:56:50;4.90;76.80
14049;DHT22;7099;53.922;10.728;2023-01-29T11:01:25;4.90;76.60
14049;DHT22;7099;53.922;10.728;2023-01-29T11:06:08;4.90;76.80
14049;DHT22;7099;53.922;10.728;2023-01-29T11:10:23;4.90;76.80
14049;DHT22;7099;53.922;10.728;2023-01-29T11:19:00;4.90;77.20
14049;DHT22;7099;53.922;10.728;2023-01-29T11:23:18;4.90;77.10
14049;DHT22;7099;53.922;10.728;2023-01-29T11:27:32;4.80;77.10
14049;DHT22;7099;53.922;10.728;2023-01-29T11:31:40;4.90;77.40
14049;DHT22;7099;53.922;10.728;2023-01-29T11:35:46;4.80;77.30
14049;DHT22;7099;53.922;10.728;2023-01-29T11:39:51;4.80;77.40
14049;DHT22;7099;53.922;10.728;2023-01-29T11:43:57;4.80;77.60
14049;DHT22;7099;53.922;10.728;2023-01-29T11:48:04;4.80;77.80
14049;DHT22;7099;53.922;10.728;2023-01-29T11:52:45;4.80;77.80
14049;DHT22;7099;53.922;10.728;2023-01-29T11:56:53;4.90;78.40
14049;DHT22;7099;53.922;10.728;2023-01-29T12:00:59;4.90;78.00
14049;DHT22;7099;53.922;10.728;2023-01-29T12:05:16;4.90;78.00
14049;DHT22;7099;53.922;10.728;2023-01-29T12:09:25;4.90;78.20
14049;DHT22;7099;53.922;10.728;2023-01-29T12:13:32;4.90;78.20
14049;DHT22;7099;53.922;10.728;2023-01-29T12:17:42;5.00;77.80
14049;DHT22;7099;53.922;10.728;2023-01-29T12:21:58;5.00;78.00
14049;DHT22;7099;53.922;10.728;2023-01-29T12:30:43;5.00;77.80
14049;DHT22;7099;53.922;10.728;2023-01-29T12:39:10;5.00;77.60
14049;DHT22;7099;53.922;10.728;2023-01-29T12:43:22;5.00;77.70
14049;DHT22;7099;53.922;10.728;2023-01-29T12:47:42;5.00;77.50
14049;DHT22;7099;53.922;10.728;2023-01-29T12:51:58;5.00;77.40
14049;DHT22;7099;53.922;10.728;2023-01-29T12:56:29;5.00;77.20
14049;DHT22;7099;53.922;10.728;2023-01-29T13:00:42;5.10;77.30
14049;DHT22;7099;53.922;10.728;2023-01-29T13:09:30;5.10;77.00
14049;DHT22;7099;53.922;10.728;2023-01-29T13:13:46;5.10;76.90
14049;DHT22;7099;53.922;10.728;2023-01-29T13:18:19;5.10;76.90
14049;DHT22;7099;53.922;10.728;2023-01-29T13:22:37;5.10;77.20
14049;DHT22;7099;53.922;10.728;2023-01-29T13:26:45;5.10;76.40
14049;DHT22;7099;53.922;10.728;2023-01-29T13:31:27;5.20;76.50
14049;DHT22;7099;53.922;10.728;2023-01-29T13:35:36;5.20;76.40
14049;DHT22;7099;53.922;10.728;2023-01-29T13:39:49;5.20;76.10
14049;DHT22;7099;53.922;10.728;2023-01-29T13:43:56;5.20;76.20
14049;DHT22;7099;53.922;10.728;2023-01-29T13:48:28;5.30;76.00
14049;DHT22;7099;53.922;10.728;2023-01-29T13:52:45;5.20;75.90
14049;DHT22;7099;53.922;10.728;2023-01-29T13:56:59;5.20;75.90
14049;DHT22;7099;53.922;10.728;2023-01-29T14:01:05;5.20;75.80
14049;DHT22;7099;53.922;10.728;2023-01-29T14:09:58;5.20;75.90
14049;DHT22;7099;53.922;10.728;2023-01-29T14:18:58;5.20;75.80
14049;DHT22;7099;53.922;10.728;2023-01-29T14:23:06;5.10;75.80
14049;DHT22;7099;53.922;10.728;2023-01-29T14:27:19;5.20;75.90
14049;DHT22;7099;53.922;10.728;2023-01-29T14:31:59;5.10;76.10
14049;DHT22;7099;53.922;10.728;2023-01-29T14:36:12;5.20;75.50
14049;DHT22;7099;53.922;10.728;2023-01-29T14:40:22;5.10;75.50
14049;DHT22;7099;53.922;10.728;2023-01-29T14:48:51;5.10;75.30
14049;DHT22;7099;53.922;10.728;2023-01-29T14:57:38;5.10;75.40
14049;DHT22;7099;53.922;10.728;2023-01-29T15:01:51;5.10;75.40
14049;DHT22;7099;53.922;10.728;2023-01-29T15:05:59;5.00;75.10
14049;DHT22;7099;53.922;10.728;2023-01-29T15:15:02;5.00;74.90
14049;DHT22;7099;53.922;10.728;2023-01-29T15:19:33;5.00;75.10
14049;DHT22;7099;53.922;10.728;2023-01-29T15:23:41;5.00;75.20
14049;DHT22;7099;53.922;10.728;2023-01-29T15:27:48;5.00;75.10
14049;DHT22;7099;53.922;10.728;2023-01-29T15:31:55;5.00;75.20
14049;DHT22;7099;53.922;10.728;2023-01-29T15:36:02;5.10;75.00
14049;DHT22;7099;53.922;10.728;2023-01-29T15:40:14;5.00;75.00
14049;DHT22;7099;53.922;10.728;2023-01-29T15:44:22;5.00;74.90
14049;DHT22;7099;53.922;10.728;2023-01-29T15:48:32;5.00;75.00
14049;DHT22;7099;53.922;10.728;2023-01-29T15:52:40;5.00;75.00
14049;DHT22;7099;53.922;10.728;2023-01-29T15:56:48;5.10;74.90
14049;DHT22;7099;53.922;10.728;2023-01-29T16:00:56;5.10;75.60
14049;DHT22;7099;53.922;10.728;2023-01-29T16:05:18;5.10;74.90
14049;DHT22;7099;53.922;10.728;2023-01-29T16:09:27;5.10;74.90
14049;DHT22;7099;53.922;10.728;2023-01-29T16:13:35;5.10;75.10
14049;DHT22;7099;53.922;10.728;2023-01-29T16:17:43;5.00;75.10
14049;DHT22;7099;53.922;10.728;2023-01-29T16:21:55;5.00;75.00
14049;DHT22;7099;53.922;10.728;2023-01-29T16:26:11;5.00;75.60
14049;DHT22;7099;53.922;10.728;2023-01-29T16:30:24;5.00;74.90
14049;DHT22;7099;53.922;10.728;2023-01-29T16:34:37;5.00;75.00
14049;DHT22;7099;53.922;10.728;2023-01-29T16:38:50;5.00;74.90
14049;DHT22;7099;53.922;10.728;2023-01-29T16:51:40;5.00;75.30
14049;DHT22;7099;53.922;10.728;2023-01-29T16:55:46;5.00;75.50
14049;DHT22;7099;53.922;10.728;2023-01-29T16:59:59;4.90;75.80
14049;DHT22;7099;53.922;10.728;2023-01-29T17:04:12;4.90;76.30
14049;DHT22;7099;53.922;10.728;2023-01-29T17:12:37;4.80;76.50
14049;DHT22;7099;53.922;10.728;2023-01-29T17:16:54;4.80;76.60
14049;DHT22;7099;53.922;10.728;2023-01-29T17:21:01;5.00;75.60
14049;DHT22;7099;53.922;10.728;2023-01-29T17:25:08;4.90;76.10
14049;DHT22;7099;53.922;10.728;2023-01-29T17:29:19;4.90;76.60
14049;DHT22;7099;53.922;10.728;2023-01-29T17:33:27;4.80;76.60
14049;DHT22;7099;53.922;10.728;2023-01-29T17:37:33;4.80;76.70
14049;DHT22;7099;53.922;10.728;2023-01-29T17:41:39;4.70;76.50
14049;DHT22;7099;53.922;10.728;2023-01-29T17:45:45;4.70;77.30
14049;DHT22;7099;53.922;10.728;2023-01-29T17:49:51;4.70;76.70
14049;DHT22;7099;53.922;10.728;2023-01-29T17:53:56;4.70;76.70
14049;DHT22;7099;53.922;10.728;2023-01-29T17:58:02;4.60;76.70
14049;DHT22;7099;53.922;10.728;2023-01-29T18:02:08;4.70;77.40
14049;DHT22;7099;53.922;10.728;2023-01-29T18:06:33;4.60;76.70
14049;DHT22;7099;53.922;10.728;2023-01-29T18:10:39;4.60;76.80
14049;DHT22;7099;53.922;10.728;2023-01-29T18:14:44;4.60;76.70
14049;DHT22;7099;53.922;10.728;2023-01-29T18:18:50;4.60;76.70
14049;DHT22;7099;53.922;10.728;2023-01-29T18:22:56;4.60;76.60
14049;DHT22;7099;53.922;10.728;2023-01-29T18:27:02;4.50;76.50
14049;DHT22;7099;53.922;10.728;2023-01-29T18:31:08;4.40;76.60
14049;DHT22;7099;53.922;10.728;2023-01-29T18:35:16;4.50;76.60
14049;DHT22;7099;53.922;10.728;2023-01-29T18:39:22;4.50;76.70
14049;DHT22;7099;53.922;10.728;2023-01-29T18:43:29;4.50;76.50
14049;DHT22;7099;53.922;10.728;2023-01-29T18:47:34;4.50;76.50
14049;DHT22;7099;53.922;10.728;2023-01-29T18:51:40;4.40;76.40
14049;DHT22;7099;53.922;10.728;2023-01-29T18:55:56;4.50;76.40
14049;DHT22;7099;53.922;10.728;2023-01-29T19:00:03;4.40;76.20
14049;DHT22;7099;53.922;10.728;2023-01-29T19:04:09;4.40;76.10
14049;DHT22;7099;53.922;10.728;2023-01-29T19:08:14;4.40;76.00
14049;DHT22;7099;53.922;10.728;2023-01-29T19:12:21;4.40;76.00
14049;DHT22;7099;53.922;10.728;2023-01-29T19:16:27;4.40;75.90
14049;DHT22;7099;53.922;10.728;2023-01-29T19:20:32;4.40;75.90
14049;DHT22;7099;53.922;10.728;2023-01-29T19:24:38;4.40;76.00
14049;DHT22;7099;53.922;10.728;2023-01-29T19:28:43;4.40;75.70
14049;DHT22;7099;53.922;10.728;2023-01-29T19:32:49;4.50;75.70
14049;DHT22;7099;53.922;10.728;2023-01-29T19:36:54;4.40;75.70
14049;DHT22;7099;53.922;10.728;2023-01-29T19:41:00;4.40;75.60
14049;DHT22;7099;53.922;10.728;2023-01-29T19:45:06;4.40;75.40
14049;DHT22;7099;53.922;10.728;2023-01-29T19:49:12;4.40;75.20
14049;DHT22;7099;53.922;10.728;2023-01-29T19:53:18;4.40;75.40
14049;DHT22;7099;53.922;10.728;2023-01-29T19:57:23;4.40;75.40
14049;DHT22;7099;53.922;10.728;2023-01-29T20:01:29;4.40;76.00
14049;DHT22;7099;53.922;10.728;2023-01-29T20:05:35;4.40;75.30
14049;DHT22;7099;53.922;10.728;2023-01-29T20:09:41;4.40;75.30
14049;DHT22;7099;53.922;10.728;2023-01-29T20:13:48;4.30;75.20
14049;DHT22;7099;53.922;10.728;2023-01-29T20:17:55;4.40;75.30
14049;DHT22;7099;53.922;10.728;2023-01-29T20:22:04;4.40;75.30
14049;DHT22;7099;53.922;10.728;2023-01-29T20:26:12;4.30;75.30
14049;DHT22;7099;53.922;10.728;2023-01-29T20:30:19;4.30;75.40
14049;DHT22;7099;53.922;10.728;2023-01-29T20:34:25;4.30;75.40
14049;DHT22;7099;53.922;10.728;2023-01-29T20:38:38;4.30;75.20
14049;DHT22;7099;53.922;10.728;2023-01-29T20:42:43;4.40;75.40
14049;DHT22;7099;53.922;10.728;2023-01-29T20:46:49;4.30;75.60
14049;DHT22;7099;53.922;10.728;2023-01-29T20:50:55;4.30;75.50
14049;DHT22;7099;53.922;10.728;2023-01-29T20:55:02;4.30;75.50
14049;DHT22;7099;53.922;10.728;2023-01-29T20:59:08;4.30;75.60
14049;DHT22;7099;53.922;10.728;2023-01-29T21:03:14;4.30;75.80
14049;DHT22;7099;53.922;10.728;2023-01-29T21:07:19;4.30;75.80
14049;DHT22;7099;53.922;10.728;2023-01-29T21:11:25;4.30;75.90
14049;DHT22;7099;53.922;10.728;2023-01-29T21:15:30;4.30;75.90
14049;DHT22;7099;53.922;10.728;2023-01-29T21:19:36;4.30;76.00
14049;DHT22;7099;53.922;10.728;2023-01-29T21:23:41;4.30;76.10
14049;DHT22;7099;53.922;10.728;2023-01-29T21:27:48;4.30;76.00
14049;DHT22;7099;53.922;10.728;2023-01-29T21:31:53;4.30;76.10
14049;DHT22;7099;53.922;10.728;2023-01-29T21:35:59;4.30;76.00
14049;DHT22;7099;53.922;10.728;2023-01-29T21:40:06;4.30;76.10
14049;DHT22;7099;53.922;10.728;2023-01-29T21:44:13;4.30;76.00
14049;DHT22;7099;53.922;10.728;2023-01-29T21:48:19;4.30;76.10
14049;DHT22;7099;53.922;10.728;2023-01-29T21:52:25;4.30;76.10
14049;DHT22;7099;53.922;10.728;2023-01-29T21:56:30;4.30;76.10
14049;DHT22;7099;53.922;10.728;2023-01-29T22:00:36;4.30;76.00
14049;DHT22;7099;53.922;10.728;2023-01-29T22:04:42;4.40;76.00
14049;DHT22;7099;53.922;10.728;2023-01-29T22:08:48;4.40;76.00
14049;DHT22;7099;53.922;10.728;2023-01-29T22:12:54;4.40;75.90
14049;DHT22;7099;53.922;10.728;2023-01-29T22:17:00;4.40;75.80
14049;DHT22;7099;53.922;10.728;2023-01-29T22:21:06;4.40;76.00
14049;DHT22;7099;53.922;10.728;2023-01-29T22:25:12;4.40;75.90
14049;DHT22;7099;53.922;10.728;2023-01-29T22:29:17;4.40;76.10
14049;DHT22;7099;53.922;10.728;2023-01-29T22:33:23;4.40;76.40
14049;DHT22;7099;53.922;10.728;2023-01-29T22:37:29;4.40;76.60
14049;DHT22;7099;53.922;10.728;2023-01-29T22:41:35;4.50;76.80
14049;DHT22;7099;53.922;10.728;2023-01-29T22:45:41;4.50;76.80
14049;DHT22;7099;53.922;10.728;2023-01-29T22:49:46;4.50;76.80
14049;DHT22;7099;53.922;10.728;2023-01-29T22:53:56;4.50;76.70
14049;DHT22;7099;53.922;10.728;2023-01-29T22:58:02;4.50;76.60
14049;DHT22;7099;53.922;10.728;2023-01-29T23:02:07;4.50;76.70
14049;DHT22;7099;53.922;10.728;2023-01-29T23:06:14;4.60;76.60
14049;DHT22;7099;53.922;10.728;2023-01-29T23:10:20;4.60;76.40
14049;DHT22;7099;53.922;10.728;2023-01-29T23:14:26;4.70;76.30
14049;DHT22;7099;53.922;10.728;2023-01-29T23:18:31;4.70;76.30
14049;DHT22;7099;53.922;10.728;2023-01-29T23:22:37;4.70;76.20
14049;DHT22;7099;53.922;10.728;2023-01-29T23:26:42;4.70;76.20
14049;DHT22;7099;53.922;10.728;2023-01-29T23:31:07;4.70;76.10
14049;DHT22;7099;53.922;10.728;2023-01-29T23:35:12;4.80;76.00
14049;DHT22;7099;53.922;10.728;2023-01-29T23:39:18;4.80;75.90
14049;DHT22;7099;53.922;10.728;2023-01-29T23:43:26;4.80;75.80
14049;DHT22;7099;53.922;10.728;2023-01-29T23:47:32;4.90;76.50
14049;DHT22;7099;53.922;10.728;2023-01-29T23:51:37;4.90;75.80
14049;DHT22;7099;53.922;10.728;2023-01-29T23:55:43;4.90;75.90
14049;DHT22;7099;53.922;10.728;2023-01-29T23:59:48;4.90;75.90
